Time;durP1;ratioP1;P1;durP2;ratioP2;P2;SDS_P1;SDS_P2;PMS_P1;PMS_P2;Temp;Humidity;BMP_temperature;BMP_pressure;BME280_temperature;BME280_humidity;BME280_pressure;Samples;Min_cycle;Max_cycle;Signal;HPM_P1;HPM_P2
2021/09/22 00:02:13;;;;;;;7.43;3.35;;;10.20;99.90;;;;;;5043398;28;20017;-73
2021/09/22 00:04:39;;;;;;;8.10;3.38;;;10.20;99.90;;;;;;5055288;28;20071;-73
2021/09/22 00:07:04;;;;;;;8.70;3.88;;;10.20;99.90;;;;;;5056126;28;20083;-74
2021/09/22 00:09:30;;;;;;;8.25;3.75;;;10.10;99.90;;;;;;5037367;28;20030;-72
2021/09/22 00:11:56;;;;;;;13.63;5.07;;;10.10;99.90;;;;;;5035642;28;20021;-74
2021/09/22 00:14:21;;;;;;;8.25;3.47;;;10.00;99.90;;;;;;5037488;28;20017;-73
2021/09/22 00:16:47;;;;;;;8.82;3.78;;;10.10;99.90;;;;;;5035382;28;20076;-75
2021/09/22 00:19:13;;;;;;;8.38;3.78;;;10.00;99.90;;;;;;5035299;28;20075;-72
2021/09/22 00:21:39;;;;;;;8.48;3.72;;;10.00;99.90;;;;;;5034019;28;20026;-74
2021/09/22 00:24:05;;;;;;;8.95;3.88;;;10.00;99.90;;;;;;5041189;28;20032;-75
2021/09/22 00:26:30;;;;;;;7.80;3.67;;;10.00;99.90;;;;;;5055393;28;20100;-74
2021/09/22 00:28:56;;;;;;;8.88;3.67;;;10.00;99.90;;;;;;5042507;28;20060;-74
2021/09/22 00:31:22;;;;;;;9.90;4.30;;;10.00;99.90;;;;;;5036605;28;20586;-74
2021/09/22 00:33:47;;;;;;;8.60;4.15;;;9.90;99.90;;;;;;5054568;28;20382;-74
2021/09/22 00:36:13;;;;;;;9.75;3.85;;;9.90;99.90;;;;;;5053747;28;20355;-75
2021/09/22 00:38:40;;;;;;;9.82;4.25;;;9.90;99.90;;;;;;5045623;28;20075;-75
2021/09/22 00:41:06;;;;;;;7.93;3.70;;;9.90;99.90;;;;;;5053227;28;20064;-74
2021/09/22 00:43:31;;;;;;;8.85;4.00;;;9.90;99.90;;;;;;5045992;28;20079;-75
2021/09/22 00:46:04;;;;;;;8.52;4.53;;;9.80;99.90;;;;;;5034835;28;20029;-74
2021/09/22 00:48:31;;;;;;;14.52;4.85;;;9.70;99.90;;;;;;5041838;28;20028;-73
2021/09/22 00:50:58;;;;;;;10.23;4.28;;;9.70;99.90;;;;;;5053280;28;20059;-74
2021/09/22 00:53:24;;;;;;;9.43;4.32;;;9.70;99.90;;;;;;5054193;28;20025;-75
2021/09/22 00:55:51;;;;;;;10.25;4.50;;;9.70;99.90;;;;;;5054949;28;20092;-75
2021/09/22 00:58:17;;;;;;;13.23;5.32;;;9.60;99.90;;;;;;5047898;28;20029;-75
2021/09/22 01:00:43;;;;;;;9.95;4.43;;;9.60;99.90;;;;;;5038162;28;20029;-74
2021/09/22 01:03:09;;;;;;;10.00;4.40;;;9.60;99.90;;;;;;5033262;28;20029;-75
2021/09/22 01:05:38;;;;;;;7.78;4.03;;;9.60;99.90;;;;;;5034570;28;20056;-74
2021/09/22 01:08:05;;;;;;;9.52;3.72;;;9.60;99.90;;;;;;5033583;28;20052;-75
2021/09/22 01:10:31;;;;;;;10.65;4.80;;;9.60;99.90;;;;;;5052851;28;20171;-74
2021/09/22 01:12:57;;;;;;;11.13;4.47;;;9.50;99.90;;;;;;5045639;28;20041;-75
2021/09/22 01:15:37;;;;;;;11.10;4.93;;;9.50;99.90;;;;;;5034720;28;20382;-74
2021/09/22 01:18:10;;;;;;;9.30;4.25;;;9.50;99.90;;;;;;5042123;28;20018;-74
2021/09/22 01:20:36;;;;;;;13.02;4.82;;;9.50;99.90;;;;;;5044913;28;20032;-75
2021/09/22 01:23:03;;;;;;;10.27;5.10;;;9.50;99.90;;;;;;5042503;28;20029;-75
2021/09/22 01:25:29;;;;;;;12.45;5.90;;;9.40;99.90;;;;;;5032854;28;20044;-75
2021/09/22 01:28:00;;;;;;;11.25;5.13;;;9.40;99.90;;;;;;5034048;28;20018;-75
2021/09/22 01:30:31;;;;;;;11.68;5.25;;;9.40;99.90;;;;;;5032448;28;20065;-75
2021/09/22 01:33:04;;;;;;;10.57;4.70;;;9.30;99.90;;;;;;5034066;28;20083;-75
2021/09/22 01:35:41;;;;;;;13.13;5.43;;;9.40;99.90;;;;;;5034119;28;20025;-76
2021/09/22 01:38:09;;;;;;;12.23;5.78;;;9.40;99.90;;;;;;5034304;28;20079;-74
2021/09/22 01:40:35;;;;;;;13.55;6.13;;;9.40;99.90;;;;;;5047541;28;20021;-75
2021/09/22 01:43:02;;;;;;;14.48;5.68;;;9.30;99.90;;;;;;5032505;28;20021;-75
2021/09/22 01:45:28;;;;;;;12.90;5.20;;;9.30;99.90;;;;;;5033767;28;20033;-75
2021/09/22 01:47:53;;;;;;;12.63;5.38;;;9.30;99.90;;;;;;5039887;28;20071;-75
2021/09/22 01:50:21;;;;;;;10.93;4.95;;;9.20;99.90;;;;;;5033633;28;20039;-75
2021/09/22 01:52:49;;;;;;;11.65;5.32;;;9.20;99.90;;;;;;5038779;28;20485;-75
2021/09/22 01:55:21;;;;;;;13.65;5.88;;;9.10;99.90;;;;;;5044735;28;20057;-75
2021/09/22 01:57:47;;;;;;;14.10;5.65;;;9.20;99.90;;;;;;5036274;28;20017;-75
2021/09/22 02:00:13;;;;;;;10.38;5.47;;;9.20;99.90;;;;;;5032376;28;20025;-74
2021/09/22 02:02:39;;;;;;;14.90;5.82;;;9.10;99.90;;;;;;5033454;28;20387;-74
2021/09/22 02:05:05;;;;;;;13.45;6.30;;;9.10;99.90;;;;;;5033737;28;20033;-74
2021/09/22 02:07:31;;;;;;;11.13;5.45;;;9.10;99.90;;;;;;5033669;28;20075;-75
2021/09/22 02:09:59;;;;;;;14.82;6.22;;;9.10;99.90;;;;;;5051290;28;20119;-75
2021/09/22 02:12:28;;;;;;;15.98;6.80;;;9.10;99.90;;;;;;5049105;28;20064;-75
2021/09/22 02:14:55;;;;;;;14.20;5.97;;;9.10;99.90;;;;;;5042076;28;20021;-75
2021/09/22 02:17:21;;;;;;;14.02;6.10;;;9.10;99.90;;;;;;5047507;28;20033;-75
2021/09/22 02:19:46;;;;;;;14.88;6.15;;;9.10;99.90;;;;;;5049776;28;20025;-75
2021/09/22 02:22:12;;;;;;;14.50;6.35;;;9.00;99.90;;;;;;5051559;28;20510;-75
2021/09/22 02:24:42;;;;;;;14.80;6.72;;;9.00;99.90;;;;;;5053328;28;20024;-74
2021/09/22 02:27:08;;;;;;;15.48;7.18;;;9.00;99.90;;;;;;5053922;28;20048;-75
2021/09/22 02:29:34;;;;;;;12.20;5.90;;;9.00;99.90;;;;;;5038347;28;20059;-75
2021/09/22 02:32:00;;;;;;;16.20;6.88;;;9.00;99.90;;;;;;5032856;28;20026;-75
2021/09/22 02:34:25;;;;;;;15.38;6.53;;;9.00;99.90;;;;;;5047130;28;20086;-75
2021/09/22 02:36:51;;;;;;;14.45;6.53;;;9.00;99.90;;;;;;5053175;28;20429;-75
2021/09/22 02:39:17;;;;;;;12.85;6.28;;;9.10;99.90;;;;;;5040332;28;20495;-74
2021/09/22 02:41:43;;;;;;;16.48;6.65;;;9.00;99.90;;;;;;5051919;28;20059;-74
2021/09/22 02:44:08;;;;;;;16.65;7.03;;;9.00;99.90;;;;;;5043552;28;20060;-75
2021/09/22 02:46:34;;;;;;;19.05;8.00;;;9.00;99.90;;;;;;5031876;28;20030;-75
2021/09/22 02:49:03;;;;;;;16.98;7.47;;;9.10;99.90;;;;;;5041023;28;20029;-74
2021/09/22 02:51:28;;;;;;;;;;;9.10;99.90;;;;;;5053716;28;20070;-75
2021/09/22 02:53:54;;;;;;;17.75;7.30;;;9.10;99.90;;;;;;5043790;28;19984;-76
2021/09/22 02:56:20;;;;;;;25.48;9.43;;;9.10;99.90;;;;;;5037037;28;20494;-75
2021/09/22 02:58:45;;;;;;;20.75;7.75;;;9.10;99.90;;;;;;5044195;28;20017;-73
2021/09/22 03:01:11;;;;;;;19.38;7.70;;;9.10;99.90;;;;;;5056562;28;20552;-74
2021/09/22 03:03:36;;;;;;;15.50;6.57;;;9.10;99.90;;;;;;5048125;28;20067;-74
2021/09/22 03:06:02;;;;;;;18.45;8.35;;;9.00;99.90;;;;;;5036877;28;20052;-74
2021/09/22 03:08:28;;;;;;;17.95;7.75;;;9.00;99.90;;;;;;5035661;28;20479;-75
2021/09/22 03:10:54;;;;;;;26.48;8.75;;;9.00;99.90;;;;;;5049098;28;20398;-73
2021/09/22 03:13:19;;;;;;;17.38;8.05;;;9.00;99.90;;;;;;5043163;28;20024;-75
2021/09/22 03:15:45;;;;;;;22.40;9.00;;;9.00;99.90;;;;;;5035419;28;20022;-75
2021/09/22 03:18:11;;;;;;;19.48;8.05;;;9.00;99.90;;;;;;5078136;22;20040;-78
2021/09/22 03:20:36;;;;;;;19.02;8.43;;;9.00;99.90;;;;;;5002008;28;20109;-77
2021/09/22 03:23:02;;;;;;;19.25;8.60;;;9.00;99.90;;;;;;5003019;28;20061;-78
2021/09/22 03:25:28;;;;;;;18.65;7.50;;;9.00;99.90;;;;;;5001373;28;20034;-78
2021/09/22 03:27:54;;;;;;;20.00;7.30;;;8.90;99.90;;;;;;5000390;28;20022;-78
2021/09/22 03:30:19;;;;;;;18.70;8.68;;;8.90;99.90;;;;;;5002585;28;20034;-78
2021/09/22 03:32:45;;;;;;;29.20;9.05;;;8.90;99.90;;;;;;5001407;28;20415;-78
2021/09/22 03:35:11;;;;;;;19.15;9.10;;;8.90;99.90;;;;;;5002332;28;20018;-78
2021/09/22 03:37:36;;;;;;;19.88;8.40;;;8.90;99.90;;;;;;5002453;28;20363;-78
2021/09/22 03:40:04;;;;;;;19.92;8.90;;;8.90;99.90;;;;;;5000198;28;20464;-78
2021/09/22 03:42:30;;;;;;;25.42;10.68;;;8.90;99.90;;;;;;5001502;28;20037;-78
2021/09/22 03:44:55;;;;;;;20.52;9.80;;;8.90;99.90;;;;;;5002016;28;20027;-78
2021/09/22 03:47:21;;;;;;;19.10;9.00;;;9.00;99.90;;;;;;5000691;28;20027;-77
2021/09/22 03:49:47;;;;;;;21.10;9.07;;;8.90;99.90;;;;;;5002011;28;20034;-77
2021/09/22 03:52:12;;;;;;;22.63;9.55;;;8.90;99.90;;;;;;5000707;28;20099;-77
2021/09/22 03:54:38;;;;;;;21.15;9.10;;;8.90;99.90;;;;;;5001796;28;20026;-77
2021/09/22 03:57:04;;;;;;;20.98;9.93;;;8.80;99.90;;;;;;5001734;28;20026;-77
2021/09/22 03:59:29;;;;;;;26.27;10.90;;;8.80;99.90;;;;;;5001283;28;20030;-77
2021/09/22 04:01:55;;;;;;;22.80;10.27;;;8.90;99.90;;;;;;5001812;28;20088;-77
2021/09/22 04:04:20;;;;;;;22.13;9.75;;;8.90;99.90;;;;;;5000138;28;20049;-78
2021/09/22 04:06:46;;;;;;;21.33;10.82;;;8.90;99.90;;;;;;5001730;28;20038;-78
2021/09/22 04:09:14;;;;;;;22.05;10.40;;;8.90;99.90;;;;;;5000802;28;20098;-78
2021/09/22 04:11:40;;;;;;;21.83;9.77;;;8.90;99.90;;;;;;5001237;28;20134;-78
2021/09/22 04:14:05;;;;;;;23.70;11.07;;;8.90;99.90;;;;;;4999984;28;20297;-78
2021/09/22 04:16:31;;;;;;;24.63;10.95;;;8.90;99.90;;;;;;5001949;28;20026;-76
2021/09/22 04:18:57;;;;;;;23.33;10.00;;;8.90;99.90;;;;;;4999468;28;20080;-76
2021/09/22 04:21:23;;;;;;;24.92;10.00;;;9.00;99.90;;;;;;5001601;28;20419;-78
2021/09/22 04:23:49;;;;;;;25.08;11.35;;;8.90;99.90;;;;;;4999979;28;20136;-78
2021/09/22 04:26:14;;;;;;;27.05;10.50;;;8.90;99.90;;;;;;5001757;28;20097;-76
2021/09/22 04:28:40;;;;;;;25.38;11.10;;;8.90;99.90;;;;;;5001330;28;20026;-76
2021/09/22 04:31:06;;;;;;;22.15;9.90;;;8.90;99.90;;;;;;4999846;28;20495;-78
2021/09/22 04:33:31;;;;;;;21.60;10.65;;;8.90;99.90;;;;;;5000235;28;20037;-77
2021/09/22 04:35:57;;;;;;;23.33;10.18;;;8.90;99.90;;;;;;4999047;28;20486;-77
2021/09/22 04:38:24;;;;;;;21.48;9.88;;;8.90;99.90;;;;;;5000696;28;20030;-77
2021/09/22 04:40:50;;;;;;;21.13;10.15;;;8.80;99.90;;;;;;4999310;28;20037;-77
2021/09/22 04:43:16;;;;;;;23.58;11.30;;;8.80;99.90;;;;;;4999334;28;20031;-78
2021/09/22 04:45:48;;;;;;;23.17;10.45;;;8.80;99.90;;;;;;5000736;28;20113;-78
2021/09/22 04:48:13;;;;;;;21.65;9.93;;;8.80;99.90;;;;;;4999781;28;20053;-77
2021/09/22 04:50:39;;;;;;;24.70;10.70;;;8.70;99.90;;;;;;4999204;28;20030;-77
2021/09/22 04:53:05;;;;;;;22.05;10.13;;;8.70;99.90;;;;;;4999799;28;20025;-78
2021/09/22 04:55:31;;;;;;;21.77;10.23;;;8.60;99.90;;;;;;5000989;28;20090;-78
2021/09/22 04:57:56;;;;;;;24.80;10.95;;;8.70;99.90;;;;;;5000466;28;20015;-77
2021/09/22 05:00:22;;;;;;;27.38;11.52;;;8.70;99.90;;;;;;4999445;28;20504;-77
2021/09/22 05:02:48;;;;;;;25.98;11.90;;;8.80;99.90;;;;;;5000566;28;20061;-78
2021/09/22 05:05:14;;;;;;;24.83;10.38;;;8.70;99.90;;;;;;4999398;28;20066;-78
2021/09/22 05:07:39;;;;;;;19.38;9.20;;;8.70;99.90;;;;;;4997073;28;20027;-78
2021/09/22 05:10:06;;;;;;;23.77;10.73;;;8.70;99.90;;;;;;4994533;28;20390;-78
2021/09/22 05:12:31;;;;;;;19.05;9.68;;;8.70;99.90;;;;;;4994482;28;20483;-78
2021/09/22 05:14:57;;;;;;;21.58;9.32;;;8.70;99.90;;;;;;4993045;28;20030;-78
2021/09/22 05:17:22;;;;;;;18.95;9.18;;;8.60;99.90;;;;;;4994203;28;20041;-75
2021/09/22 05:19:48;;;;;;;21.67;10.45;;;8.60;99.90;;;;;;4993491;28;20034;-75
2021/09/22 05:22:15;;;;;;;20.95;9.70;;;8.60;99.90;;;;;;4993718;28;20121;-73
2021/09/22 05:24:45;;;;;;;19.20;9.15;;;8.60;99.90;;;;;;4994975;28;20105;-71
2021/09/22 05:27:11;;;;;;;25.17;10.57;;;8.60;99.90;;;;;;4995238;28;20387;-71
2021/09/22 05:29:38;;;;;;;21.85;9.50;;;8.70;99.90;;;;;;4995512;28;20487;-71
2021/09/22 05:32:04;;;;;;;25.02;11.00;;;8.70;99.90;;;;;;4993512;28;20030;-75
2021/09/22 05:34:30;;;;;;;24.42;10.52;;;8.70;99.90;;;;;;4994940;28;20037;-73
2021/09/22 05:36:55;;;;;;;23.00;10.27;;;8.70;99.90;;;;;;4994716;28;20027;-74
2021/09/22 05:39:21;;;;;;;24.67;10.68;;;8.80;99.90;;;;;;4993644;28;20110;-76
2021/09/22 05:41:47;;;;;;;21.20;10.60;;;8.80;99.90;;;;;;4993021;28;20057;-75
2021/09/22 05:44:12;;;;;;;20.83;10.07;;;8.90;99.90;;;;;;4993072;28;20121;-75
2021/09/22 05:46:38;;;;;;;21.85;10.27;;;8.90;99.90;;;;;;4993625;28;20383;-78
2021/09/22 05:49:04;;;;;;;24.77;10.85;;;8.90;99.90;;;;;;4992965;28;20124;-75
2021/09/22 05:51:30;;;;;;;28.08;11.95;;;8.90;99.90;;;;;;4989676;28;20034;-75
2021/09/22 05:53:55;;;;;;;25.55;11.27;;;8.90;99.90;;;;;;4995016;28;20034;-75
2021/09/22 05:56:21;;;;;;;33.38;13.68;;;9.00;99.90;;;;;;4999658;28;20101;-75
2021/09/22 05:58:47;;;;;;;28.63;12.15;;;9.00;99.90;;;;;;4997592;28;20117;-75
2021/09/22 06:01:12;;;;;;;30.20;12.20;;;9.10;99.90;;;;;;4998826;28;20031;-75
2021/09/22 06:03:38;;;;;;;34.25;14.68;;;9.20;99.90;;;;;;4999373;28;20081;-75
2021/09/22 06:06:04;;;;;;;31.42;12.35;;;9.30;99.90;;;;;;4998652;28;20379;-76
2021/09/22 06:08:30;;;;;;;32.42;13.02;;;9.30;99.90;;;;;;4998509;28;20388;-78
2021/09/22 06:10:55;;;;;;;35.30;13.48;;;9.40;99.90;;;;;;4997962;28;20015;-78
2021/09/22 06:13:21;;;;;;;35.22;13.65;;;9.40;99.90;;;;;;4997374;28;20015;-76
2021/09/22 06:15:47;;;;;;;31.35;12.95;;;9.50;99.90;;;;;;4998805;28;20045;-74
2021/09/22 06:18:14;;;;;;;31.27;12.48;;;9.50;99.90;;;;;;4998603;28;20026;-74
2021/09/22 06:20:39;;;;;;;28.38;12.70;;;9.60;99.90;;;;;;4999205;28;20023;-74
2021/09/22 06:23:05;;;;;;;34.92;14.65;;;9.60;99.90;;;;;;4997032;28;20085;-74
2021/09/22 06:25:31;;;;;;;30.90;13.85;;;9.70;99.90;;;;;;4997779;28;20106;-74
2021/09/22 06:27:56;;;;;;;33.60;14.60;;;9.80;99.90;;;;;;4997512;28;20365;-74
2021/09/22 06:30:22;;;;;;;39.10;15.32;;;9.90;99.90;;;;;;4998838;28;20023;-74
2021/09/22 06:32:47;;;;;;;37.30;15.93;;;10.00;99.90;;;;;;4997315;28;20038;-74
2021/09/22 06:35:13;;;;;;;29.10;13.38;;;10.10;99.90;;;;;;4998459;28;20030;-74
2021/09/22 06:37:39;;;;;;;32.63;14.90;;;10.20;99.90;;;;;;4998605;28;20030;-73
2021/09/22 06:40:06;;;;;;;32.55;15.07;;;10.30;99.90;;;;;;4998146;28;20042;-73
2021/09/22 06:42:32;;;;;;;33.78;15.40;;;10.40;99.90;;;;;;4998848;28;20030;-73
2021/09/22 06:44:57;;;;;;;37.30;15.25;;;10.50;99.90;;;;;;4996906;28;20535;-72
2021/09/22 06:47:24;;;;;;;36.85;15.27;;;10.60;99.90;;;;;;4997838;28;20435;-73
2021/09/22 06:49:49;;;;;;;34.28;14.23;;;10.70;99.90;;;;;;4998789;28;20030;-73
2021/09/22 06:52:15;;;;;;;41.67;15.68;;;10.90;99.90;;;;;;4998566;28;20030;-73
2021/09/22 06:54:42;;;;;;;35.60;14.52;;;11.00;99.90;;;;;;4998462;28;20026;-73
2021/09/22 06:57:08;;;;;;;33.92;14.55;;;11.10;99.90;;;;;;4998918;28;20353;-74
2021/09/22 06:59:34;;;;;;;34.65;15.63;;;11.20;99.90;;;;;;4998309;28;20042;-74
2021/09/22 07:01:59;;;;;;;34.03;14.60;;;11.30;99.90;;;;;;4996899;28;20022;-73
2021/09/22 07:04:25;;;;;;;38.38;14.68;;;11.40;99.90;;;;;;4996842;28;20030;-74
2021/09/22 07:06:51;;;;;;;33.63;14.45;;;11.50;99.90;;;;;;4998271;28;20105;-74
2021/09/22 07:09:16;;;;;;;39.15;16.38;;;11.60;99.90;;;;;;4998198;28;20479;-74
2021/09/22 07:11:42;;;;;;;34.08;14.90;;;11.70;99.90;;;;;;4997868;28;20037;-73
2021/09/22 07:14:07;;;;;;;38.67;15.57;;;11.80;99.90;;;;;;4997159;28;20043;-74
2021/09/22 07:16:33;;;;;;;44.00;16.50;;;11.90;99.90;;;;;;4998097;28;20110;-74
2021/09/22 07:18:58;;;;;;;41.60;16.70;;;12.00;99.90;;;;;;4998331;28;20057;-74
2021/09/22 07:21:25;;;;;;;30.40;14.77;;;12.10;99.90;;;;;;4997379;28;20038;-73
2021/09/22 07:23:50;;;;;;;35.60;13.75;;;12.10;99.90;;;;;;4994118;28;20475;-73
2021/09/22 07:26:16;;;;;;;32.28;14.75;;;12.20;99.90;;;;;;4993984;28;20037;-73
2021/09/22 07:28:42;;;;;;;35.00;15.27;;;12.30;99.90;;;;;;4993981;28;20033;-72
2021/09/22 07:31:09;;;;;;;39.38;15.30;;;12.40;99.90;;;;;;4993769;28;20048;-72
2021/09/22 07:33:35;;;;;;;39.05;15.88;;;12.50;99.90;;;;;;4994519;28;20027;-72
2021/09/22 07:36:01;;;;;;;31.45;14.73;;;12.80;99.90;;;;;;4993779;28;20042;-72
2021/09/22 07:38:27;;;;;;;34.08;16.30;;;13.00;99.90;;;;;;4994526;28;20022;-74
2021/09/22 07:40:53;;;;;;;34.63;15.57;;;13.20;99.90;;;;;;4995758;28;20029;-72
2021/09/22 07:43:19;;;;;;;34.95;13.90;;;13.40;99.90;;;;;;4997135;28;20033;-73
2021/09/22 07:45:45;;;;;;;34.85;14.57;;;13.60;99.90;;;;;;4996863;28;20030;-74
2021/09/22 07:48:10;;;;;;;34.15;14.60;;;13.80;99.90;;;;;;4996698;28;20030;-74
2021/09/22 07:50:36;;;;;;;28.67;13.60;;;13.90;99.90;;;;;;4996941;28;20065;-74
2021/09/22 07:53:02;;;;;;;31.35;13.45;;;14.10;99.90;;;;;;4995332;28;20022;-74
2021/09/22 07:55:28;;;;;;;28.92;12.73;;;14.20;99.90;;;;;;4995293;28;20018;-74
2021/09/22 07:57:55;;;;;;;34.88;14.10;;;14.40;99.90;;;;;;4996609;28;20022;-74
2021/09/22 08:00:21;;;;;;;27.77;13.15;;;14.60;99.90;;;;;;4996470;28;20122;-74
2021/09/22 08:02:47;;;;;;;28.80;13.98;;;14.80;99.90;;;;;;4996396;28;20101;-74
2021/09/22 08:05:13;;;;;;;24.50;12.38;;;15.00;99.90;;;;;;4997072;28;20040;-74
2021/09/22 08:07:38;;;;;;;28.95;13.98;;;15.20;99.90;;;;;;4996977;28;20030;-74
2021/09/22 08:10:05;;;;;;;27.20;12.38;;;15.20;99.90;;;;;;4996620;28;20511;-74
2021/09/22 08:12:31;;;;;;;29.50;13.18;;;15.30;99.90;;;;;;4996182;28;20030;-74
2021/09/22 08:14:56;;;;;;;26.58;12.15;;;15.30;99.90;;;;;;4994898;28;20019;-74
2021/09/22 08:17:22;;;;;;;23.95;12.25;;;15.30;99.90;;;;;;4995287;28;20022;-72
2021/09/22 08:19:48;;;;;;;27.25;12.98;;;15.40;99.90;;;;;;4996409;28;20057;-72
2021/09/22 08:22:14;;;;;;;24.92;12.20;;;15.50;99.90;;;;;;4995605;28;20034;-72
2021/09/22 08:24:40;;;;;;;25.42;12.63;;;15.60;99.90;;;;;;4996143;28;20030;-72
2021/09/22 08:27:05;;;;;;;30.00;13.73;;;15.70;99.90;;;;;;4994870;28;20080;-72
2021/09/22 08:29:34;;;;;;;22.63;12.25;;;15.90;99.90;;;;;;4996266;28;20380;-73
2021/09/22 08:32:00;;;;;;;26.27;12.70;;;16.00;99.90;;;;;;4995902;28;20395;-73
2021/09/22 08:34:26;;;;;;;23.80;11.73;;;16.10;99.90;;;;;;4995833;28;20018;-72
2021/09/22 08:36:52;;;;;;;24.15;11.10;;;16.20;99.90;;;;;;4996372;28;20109;-72
2021/09/22 08:39:18;;;;;;;22.50;11.48;;;16.30;99.90;;;;;;4994533;28;20587;-72
2021/09/22 08:41:45;;;;;;;22.48;11.43;;;16.40;99.90;;;;;;4995778;28;20030;-72
2021/09/22 08:44:12;;;;;;;20.73;9.45;;;16.50;99.90;;;;;;4995746;28;20034;-72
2021/09/22 08:46:40;;;;;;;22.75;11.20;;;16.50;99.90;;;;;;4996183;28;20028;-72
2021/09/22 08:49:07;;;;;;;22.35;10.70;;;16.50;99.90;;;;;;4995641;28;20027;-73
2021/09/22 08:51:32;;;;;;;22.98;10.40;;;16.60;99.90;;;;;;4995545;28;20026;-72
2021/09/22 08:53:58;;;;;;;26.38;11.18;;;16.60;99.90;;;;;;4995770;28;20019;-74
2021/09/22 08:56:25;;;;;;;17.02;8.75;;;16.70;99.90;;;;;;4995455;28;20030;-74
2021/09/22 08:58:50;;;;;;;16.98;7.25;;;16.80;99.90;;;;;;4994568;28;20027;-73
2021/09/22 09:01:20;;;;;;;16.98;6.80;;;17.00;99.90;;;;;;4995435;28;20026;-73
2021/09/22 09:03:46;;;;;;;15.48;6.70;;;17.10;99.90;;;;;;4995594;28;20472;-73
2021/09/22 09:06:26;;;;;;;15.02;7.47;;;17.20;99.90;;;;;;4995376;28;20076;-73
2021/09/22 09:08:56;;;;;;;21.23;8.07;;;17.30;99.90;;;;;;4994009;28;20026;-73
2021/09/22 09:11:33;;;;;;;15.15;7.03;;;17.50;99.90;;;;;;4995442;28;20030;-73
2021/09/22 09:14:02;;;;;;;16.55;7.38;;;17.60;99.90;;;;;;4995176;28;20058;-73
2021/09/22 09:16:49;;;;;;;14.07;6.80;;;17.80;99.90;;;;;;4993915;28;20021;-73
2021/09/22 09:19:20;;;;;;;16.80;8.18;;;17.80;99.90;;;;;;4995015;28;20026;-74
2021/09/22 09:21:55;;;;;;;19.17;7.72;;;17.90;99.90;;;;;;4994139;28;20038;-72
2021/09/22 09:24:41;;;;;;;13.82;6.70;;;17.90;99.90;;;;;;4995130;28;20062;-73
2021/09/22 09:27:24;;;;;;;17.92;7.40;;;18.00;99.90;;;;;;4993776;28;20397;-73
2021/09/22 09:29:55;;;;;;;13.32;6.18;;;18.10;99.90;;;;;;4995230;28;20373;-74
2021/09/22 09:32:25;;;;;;;17.83;7.30;;;18.20;99.90;;;;;;4994954;28;20037;-72
2021/09/22 09:35:09;;;;;;;15.63;6.05;;;18.20;99.90;;;;;;4994790;28;20026;-73
2021/09/22 09:37:40;;;;;;;15.82;6.97;;;18.10;99.90;;;;;;4994489;28;20380;-72
2021/09/22 09:40:25;;;;;;;15.02;6.40;;;18.20;99.90;;;;;;4994939;28;20056;-73
2021/09/22 09:43:02;;;;;;;16.05;7.15;;;18.30;99.90;;;;;;4994904;28;20026;-73
2021/09/22 09:45:38;;;;;;;14.55;6.82;;;18.40;99.90;;;;;;4993578;28;20033;-74
2021/09/22 09:48:16;;;;;;;16.55;6.60;;;18.50;99.90;;;;;;4994850;28;20038;-75
2021/09/22 09:50:42;;;;;;;14.93;6.68;;;18.50;99.90;;;;;;5007969;22;20038;-74
2021/09/22 09:53:08;;;;;;;14.93;6.40;;;18.60;99.90;;;;;;4995068;28;20030;-73
2021/09/22 09:55:38;;;;;;;15.80;6.97;;;18.60;99.90;;;;;;4994653;28;20046;-74
2021/09/22 09:58:03;;;;;;;13.52;6.90;;;18.60;99.90;;;;;;4994454;28;20023;-74
2021/09/22 10:00:38;;;;;;;17.38;6.60;;;18.60;99.90;;;;;;4994002;28;20018;-74
2021/09/22 10:03:17;;;;;;;13.52;6.57;;;17.20;99.90;;;;;;4991348;28;20026;-75
2021/09/22 10:05:42;;;;;;;13.75;6.75;;;18.90;99.90;;;;;;4984450;28;20372;-73
2021/09/22 10:08:18;;;;;;;17.90;6.88;;;19.10;99.90;;;;;;4974883;28;20019;-73
2021/09/22 10:10:48;;;;;;;13.93;6.38;;;19.20;99.90;;;;;;4974714;28;20120;-73
2021/09/22 10:13:15;;;;;;;19.40;6.28;;;19.20;99.90;;;;;;4973533;28;20027;-74
2021/09/22 10:15:43;;;;;;;13.32;6.00;;;19.20;99.90;;;;;;4997963;23;20067;-75
2021/09/22 10:18:13;;;;;;;13.98;6.00;;;19.20;99.90;;;;;;4994804;28;20054;-74
2021/09/22 10:20:43;;;;;;;13.75;5.60;;;19.10;99.90;;;;;;4994141;28;20030;-75
2021/09/22 10:23:10;;;;;;;14.70;6.20;;;19.20;99.90;;;;;;4994551;28;20460;-73
2021/09/22 10:25:38;;;;;;;13.80;6.43;;;19.20;99.90;;;;;;4994138;28;20050;-74
2021/09/22 10:28:04;;;;;;;15.40;7.00;;;19.40;99.90;;;;;;4994148;28;20097;-74
2021/09/22 10:30:34;;;;;;;11.32;5.18;;;19.60;99.90;;;;;;4992586;28;20282;-74
2021/09/22 10:33:00;;;;;;;12.48;6.05;;;19.70;99.90;;;;;;4994027;28;20029;-75
2021/09/22 10:35:26;;;;;;;12.40;5.57;;;19.90;99.90;;;;;;4993727;28;20026;-74
2021/09/22 10:38:00;;;;;;;13.05;5.50;;;19.90;99.90;;;;;;4993845;28;20054;-73
2021/09/22 10:40:35;;;;;;;14.77;5.05;;;19.90;99.90;;;;;;4992433;28;20510;-73
2021/09/22 10:43:15;;;;;;;12.13;5.18;;;19.90;99.90;;;;;;4993994;28;20126;-74
2021/09/22 10:45:46;;;;;;;10.77;4.88;;;19.80;99.90;;;;;;4993726;28;20026;-74
2021/09/22 10:48:23;;;;;;;15.10;6.40;;;19.90;99.90;;;;;;4992961;28;20030;-74
2021/09/22 10:50:54;;;;;;;12.70;5.40;;;19.90;99.90;;;;;;4994043;28;20037;-73
2021/09/22 10:53:31;;;;;;;11.57;4.30;;;19.90;99.90;;;;;;4993796;28;20026;-75
2021/09/22 10:56:09;;;;;;;9.88;4.07;;;20.00;99.90;;;;;;4992506;28;20031;-74
2021/09/22 10:58:47;;;;;;;15.07;5.07;;;20.30;99.90;;;;;;4993339;28;20046;-74
2021/09/22 11:01:33;;;;;;;13.65;5.38;;;20.50;99.90;;;;;;4977719;28;20432;-73
2021/09/22 11:03:59;;;;;;;12.30;4.70;;;20.60;99.90;;;;;;4974138;28;20033;-74
2021/09/22 11:06:43;;;;;;;13.77;5.75;;;20.80;99.90;;;;;;4982149;28;20030;-75
2021/09/22 11:09:10;;;;;;;10.27;5.90;;;20.80;99.90;;;;;;4993578;28;20069;-73
2021/09/22 11:11:54;;;;;;;9.40;4.68;;;20.70;99.90;;;;;;4993450;28;20027;-73
2021/09/22 11:14:34;;;;;;;10.02;5.03;;;20.80;99.90;;;;;;4996489;28;20022;-73
2021/09/22 11:17:13;;;;;;;13.27;4.53;;;20.90;99.90;;;;;;4997311;28;20438;-73
2021/09/22 11:19:45;;;;;;;11.82;3.28;;;20.70;99.90;;;;;;4997732;28;20475;-73
2021/09/22 11:22:16;;;;;;;8.90;2.92;;;20.50;99.90;;;;;;4995941;28;20475;-73
2021/09/22 11:24:43;;;;;;;10.02;3.58;;;20.40;99.90;;;;;;4997065;28;20081;-73
2021/09/22 11:27:17;;;;;;;9.18;3.58;;;20.30;99.90;;;;;;4997374;28;20037;-73
2021/09/22 11:29:50;;;;;;;8.70;4.00;;;20.40;99.90;;;;;;4997712;28;20029;-73
2021/09/22 11:32:48;;;;;;;6.35;2.78;;;20.50;99.90;;;;;;4997571;28;20118;-73
2021/09/22 11:35:18;;;;;;;5.47;2.30;;;20.60;99.90;;;;;;4995533;28;20069;-73
2021/09/22 11:37:52;;;;;;;7.95;2.75;;;20.80;99.90;;;;;;4997049;28;20446;-73
2021/09/22 11:40:22;;;;;;;7.55;2.45;;;20.90;99.80;;;;;;4997033;28;20037;-73
2021/09/22 11:42:55;;;;;;;4.22;1.77;;;20.90;99.50;;;;;;4996926;28;20026;-73
2021/09/22 11:45:23;;;;;;;8.07;2.97;;;21.10;99.90;;;;;;4998063;28;20022;-73
2021/09/22 11:47:49;;;;;;;8.20;2.58;;;21.30;98.70;;;;;;4995701;28;20040;-75
2021/09/22 11:50:47;;;;;;;8.75;3.28;;;21.50;97.80;;;;;;4998275;28;20101;-75
2021/09/22 11:53:16;;;;;;;4.60;1.98;;;21.20;98.70;;;;;;4996837;28;20038;-75
2021/09/22 11:55:43;;;;;;;;;;;21.40;97.70;;;;;;4997949;28;20022;-75
2021/09/22 11:58:14;;;;;;;7.38;2.10;;;21.50;97.10;;;;;;4997232;28;19917;-74
2021/09/22 12:00:42;;;;;;;5.97;3.15;;;22.10;98.30;;;;;;4997075;28;20049;-75
2021/09/22 12:03:13;;;;;;;10.30;2.80;;;22.10;94.40;;;;;;5001208;28;20033;-75
2021/09/22 12:05:40;;;;;;;4.72;2.50;;;22.30;93.90;;;;;;5000842;28;20110;-75
2021/09/22 12:08:11;;;;;;;5.70;2.03;;;22.40;94.60;;;;;;4995661;28;20028;-73
2021/09/22 12:10:42;;;;;;;5.25;2.30;;;22.60;92.40;;;;;;5012335;22;20034;-73
2021/09/22 12:13:09;;;;;;;6.22;2.63;;;22.60;91.10;;;;;;5051139;28;20083;-74
2021/09/22 12:15:35;;;;;;;5.88;1.98;;;22.60;91.70;;;;;;5050236;22;20394;-75
2021/09/22 12:18:00;;;;;;;6.78;1.90;;;24.30;91.90;;;;;;5033959;28;20032;-75
2021/09/22 12:20:29;;;;;;;4.57;2.03;;;22.80;90.30;;;;;;5037975;28;20049;-76
2021/09/22 12:22:58;;;;;;;7.35;2.85;;;22.80;91.10;;;;;;5039183;28;20104;-76
2021/09/22 12:25:24;;;;;;;6.75;2.22;;;22.90;87.20;;;;;;5035148;28;20053;-73
2021/09/22 12:27:51;;;;;;;4.97;2.10;;;22.90;89.60;;;;;;5036018;28;20026;-73
2021/09/22 12:30:18;;;;;;;4.47;2.47;;;22.80;88.20;;;;;;5038273;28;20056;-73
2021/09/22 12:32:51;;;;;;;5.07;1.45;;;22.70;90.00;;;;;;5032381;28;20451;-74
2021/09/22 12:35:18;;;;;;;4.40;1.90;;;22.80;86.60;;;;;;5018078;28;20022;-75
2021/09/22 12:37:54;;;;;;;4.70;1.85;;;23.00;88.90;;;;;;5015251;28;20501;-75
2021/09/22 12:40:27;;;;;;;5.53;1.92;;;23.00;89.50;;;;;;5014345;28;20075;-74
2021/09/22 12:42:53;;;;;;;6.60;1.58;;;22.70;88.60;;;;;;5021585;28;20033;-74
2021/09/22 12:45:30;;;;;;;4.43;1.83;;;22.70;88.50;;;;;;5035137;28;20095;-75